sensor_id;sensor_type;location;lat;lon;timestamp;P1;durP1;ratioP1;P2;durP2;ratioP2
325;SDS011;150;52.352;14.058;2022-10-22T00:00:22;34.10;;;22.98;;
325;SDS011;150;52.352;14.058;2022-10-22T00:02:49;21.33;;;13.38;;
325;SDS011;150;52.352;14.058;2022-10-22T00:05:15;20.42;;;15.35;;
325;SDS011;150;52.352;14.058;2022-10-22T00:07:42;19.77;;;12.70;;
325;SDS011;150;52.352;14.058;2022-10-22T00:10:09;19.90;;;12.27;;
325;SDS011;150;52.352;14.058;2022-10-22T00:12:36;16.73;;;11.65;;
325;SDS011;150;52.352;14.058;2022-10-22T00:15:05;20.65;;;12.30;;
325;SDS011;150;52.352;14.058;2022-10-22T00:17:32;19.35;;;13.13;;
325;SDS011;150;52.352;14.058;2022-10-22T00:20:00;17.98;;;12.88;;
325;SDS011;150;52.352;14.058;2022-10-22T00:22:26;17.90;;;12.20;;
325;SDS011;150;52.352;14.058;2022-10-22T00:24:53;16.48;;;10.95;;
325;SDS011;150;52.352;14.058;2022-10-22T00:27:20;19.75;;;12.00;;
325;SDS011;150;52.352;14.058;2022-10-22T00:29:46;17.95;;;11.82;;
325;SDS011;150;52.352;14.058;2022-10-22T00:32:14;17.67;;;11.73;;
325;SDS011;150;52.352;14.058;2022-10-22T00:34:41;17.37;;;11.70;;
325;SDS011;150;52.352;14.058;2022-10-22T00:37:08;19.83;;;13.35;;
325;SDS011;150;52.352;14.058;2022-10-22T00:39:34;16.90;;;11.07;;
325;SDS011;150;52.352;14.058;2022-10-22T00:42:01;18.05;;;11.13;;
325;SDS011;150;52.352;14.058;2022-10-22T00:47:41;17.75;;;11.48;;
325;SDS011;150;52.352;14.058;2022-10-22T00:50:12;15.02;;;10.35;;
325;SDS011;150;52.352;14.058;2022-10-22T00:52:42;16.95;;;10.52;;
325;SDS011;150;52.352;14.058;2022-10-22T00:55:09;15.65;;;11.13;;
325;SDS011;150;52.352;14.058;2022-10-22T00:57:36;12.35;;;9.95;;
325;SDS011;150;52.352;14.058;2022-10-22T01:00:03;12.90;;;9.10;;
325;SDS011;150;52.352;14.058;2022-10-22T01:02:31;14.20;;;10.13;;
325;SDS011;150;52.352;14.058;2022-10-22T01:04:59;16.00;;;10.00;;
325;SDS011;150;52.352;14.058;2022-10-22T01:07:26;12.73;;;10.07;;
325;SDS011;150;52.352;14.058;2022-10-22T01:09:56;13.02;;;10.10;;
325;SDS011;150;52.352;14.058;2022-10-22T01:12:30;14.48;;;10.27;;
325;SDS011;150;52.352;14.058;2022-10-22T01:15:06;15.02;;;9.88;;
325;SDS011;150;52.352;14.058;2022-10-22T01:17:40;13.15;;;10.10;;
325;SDS011;150;52.352;14.058;2022-10-22T01:20:18;16.08;;;10.40;;
325;SDS011;150;52.352;14.058;2022-10-22T01:23:07;18.02;;;11.48;;
325;SDS011;150;52.352;14.058;2022-10-22T01:25:48;16.60;;;10.10;;
325;SDS011;150;52.352;14.058;2022-10-22T01:28:20;14.80;;;10.55;;
325;SDS011;150;52.352;14.058;2022-10-22T01:31:03;14.35;;;10.18;;
325;SDS011;150;52.352;14.058;2022-10-22T01:33:32;19.00;;;11.68;;
325;SDS011;150;52.352;14.058;2022-10-22T01:35:59;16.10;;;11.30;;
325;SDS011;150;52.352;14.058;2022-10-22T01:38:27;16.17;;;11.18;;
325;SDS011;150;52.352;14.058;2022-10-22T01:40:55;15.85;;;11.30;;
325;SDS011;150;52.352;14.058;2022-10-22T01:43:23;13.98;;;10.57;;
325;SDS011;150;52.352;14.058;2022-10-22T01:45:53;16.30;;;10.48;;
325;SDS011;150;52.352;14.058;2022-10-22T01:48:37;15.95;;;10.85;;
325;SDS011;150;52.352;14.058;2022-10-22T01:51:17;13.70;;;10.20;;
325;SDS011;150;52.352;14.058;2022-10-22T01:53:53;18.25;;;12.35;;
325;SDS011;150;52.352;14.058;2022-10-22T01:56:30;16.70;;;12.07;;
325;SDS011;150;52.352;14.058;2022-10-22T01:59:11;16.85;;;10.55;;
325;SDS011;150;52.352;14.058;2022-10-22T02:01:50;15.73;;;10.70;;
325;SDS011;150;52.352;14.058;2022-10-22T02:04:21;16.10;;;11.13;;
325;SDS011;150;52.352;14.058;2022-10-22T02:06:51;16.77;;;11.63;;
325;SDS011;150;52.352;14.058;2022-10-22T02:09:21;17.37;;;12.17;;
325;SDS011;150;52.352;14.058;2022-10-22T02:11:51;16.87;;;12.13;;
325;SDS011;150;52.352;14.058;2022-10-22T02:14:19;16.52;;;11.20;;
325;SDS011;150;52.352;14.058;2022-10-22T02:16:48;15.73;;;10.82;;
325;SDS011;150;52.352;14.058;2022-10-22T02:19:16;23.48;;;12.20;;
325;SDS011;150;52.352;14.058;2022-10-22T02:21:50;20.58;;;11.98;;
325;SDS011;150;52.352;14.058;2022-10-22T02:24:17;16.80;;;11.30;;
325;SDS011;150;52.352;14.058;2022-10-22T02:26:45;19.33;;;12.35;;
325;SDS011;150;52.352;14.058;2022-10-22T02:29:18;17.73;;;11.53;;
325;SDS011;150;52.352;14.058;2022-10-22T02:31:52;18.05;;;11.93;;
325;SDS011;150;52.352;14.058;2022-10-22T02:34:21;16.77;;;11.82;;
325;SDS011;150;52.352;14.058;2022-10-22T02:36:51;17.03;;;11.13;;
325;SDS011;150;52.352;14.058;2022-10-22T02:39:18;19.27;;;11.02;;
325;SDS011;150;52.352;14.058;2022-10-22T02:41:46;17.95;;;11.30;;
325;SDS011;150;52.352;14.058;2022-10-22T02:44:13;15.83;;;11.10;;
325;SDS011;150;52.352;14.058;2022-10-22T02:46:41;14.00;;;10.20;;
325;SDS011;150;52.352;14.058;2022-10-22T02:49:10;15.48;;;10.52;;
325;SDS011;150;52.352;14.058;2022-10-22T02:51:37;15.23;;;10.25;;
325;SDS011;150;52.352;14.058;2022-10-22T02:54:03;12.60;;;9.35;;
325;SDS011;150;52.352;14.058;2022-10-22T02:56:30;14.18;;;10.18;;
325;SDS011;150;52.352;14.058;2022-10-22T02:58:57;15.43;;;10.05;;
325;SDS011;150;52.352;14.058;2022-10-22T03:01:24;14.18;;;10.18;;
325;SDS011;150;52.352;14.058;2022-10-22T03:03:50;15.13;;;10.32;;
325;SDS011;150;52.352;14.058;2022-10-22T03:06:18;15.75;;;10.25;;
325;SDS011;150;52.352;14.058;2022-10-22T03:08:45;15.20;;;11.10;;
325;SDS011;150;52.352;14.058;2022-10-22T03:11:12;14.00;;;10.38;;
325;SDS011;150;52.352;14.058;2022-10-22T03:13:38;15.40;;;10.27;;
325;SDS011;150;52.352;14.058;2022-10-22T03:16:05;17.60;;;10.65;;
325;SDS011;150;52.352;14.058;2022-10-22T03:18:32;16.77;;;10.23;;
325;SDS011;150;52.352;14.058;2022-10-22T03:21:00;18.52;;;10.82;;
325;SDS011;150;52.352;14.058;2022-10-22T03:23:32;13.38;;;9.52;;
325;SDS011;150;52.352;14.058;2022-10-22T03:25:59;14.68;;;9.70;;
325;SDS011;150;52.352;14.058;2022-10-22T03:28:25;12.35;;;9.40;;
325;SDS011;150;52.352;14.058;2022-10-22T03:30:52;16.05;;;9.50;;
325;SDS011;150;52.352;14.058;2022-10-22T03:33:19;13.73;;;9.30;;
325;SDS011;150;52.352;14.058;2022-10-22T03:35:45;17.90;;;10.17;;
325;SDS011;150;52.352;14.058;2022-10-22T03:38:13;16.88;;;10.70;;
325;SDS011;150;52.352;14.058;2022-10-22T03:40:41;14.75;;;10.13;;
325;SDS011;150;52.352;14.058;2022-10-22T03:43:09;15.88;;;10.45;;
325;SDS011;150;52.352;14.058;2022-10-22T03:45:36;14.90;;;10.50;;
325;SDS011;150;52.352;14.058;2022-10-22T03:48:03;13.35;;;9.50;;
325;SDS011;150;52.352;14.058;2022-10-22T03:50:30;14.68;;;10.15;;
325;SDS011;150;52.352;14.058;2022-10-22T03:52:57;12.98;;;9.10;;
325;SDS011;150;52.352;14.058;2022-10-22T03:55:23;14.90;;;9.95;;
325;SDS011;150;52.352;14.058;2022-10-22T03:57:51;16.65;;;10.63;;
325;SDS011;150;52.352;14.058;2022-10-22T04:00:18;14.70;;;10.05;;
325;SDS011;150;52.352;14.058;2022-10-22T04:02:45;15.90;;;9.80;;
325;SDS011;150;52.352;14.058;2022-10-22T04:05:11;13.83;;;8.67;;
325;SDS011;150;52.352;14.058;2022-10-22T04:07:38;14.48;;;9.75;;
325;SDS011;150;52.352;14.058;2022-10-22T04:10:05;17.13;;;10.93;;
325;SDS011;150;52.352;14.058;2022-10-22T04:12:32;17.38;;;10.75;;
325;SDS011;150;52.352;14.058;2022-10-22T04:15:00;18.13;;;11.05;;
325;SDS011;150;52.352;14.058;2022-10-22T04:17:31;14.85;;;9.05;;
325;SDS011;150;52.352;14.058;2022-10-22T04:19:58;17.02;;;10.65;;
325;SDS011;150;52.352;14.058;2022-10-22T04:22:25;18.83;;;10.35;;
325;SDS011;150;52.352;14.058;2022-10-22T04:24:51;17.00;;;10.50;;
325;SDS011;150;52.352;14.058;2022-10-22T04:27:18;12.77;;;8.90;;
325;SDS011;150;52.352;14.058;2022-10-22T04:29:45;12.65;;;10.20;;
325;SDS011;150;52.352;14.058;2022-10-22T04:32:13;11.83;;;9.50;;
325;SDS011;150;52.352;14.058;2022-10-22T04:34:39;10.90;;;7.80;;
325;SDS011;150;52.352;14.058;2022-10-22T04:37:06;13.50;;;8.77;;
325;SDS011;150;52.352;14.058;2022-10-22T04:39:32;13.43;;;8.88;;
325;SDS011;150;52.352;14.058;2022-10-22T04:41:59;16.27;;;8.47;;
325;SDS011;150;52.352;14.058;2022-10-22T04:44:26;13.05;;;8.80;;
325;SDS011;150;52.352;14.058;2022-10-22T04:46:52;11.40;;;8.05;;
325;SDS011;150;52.352;14.058;2022-10-22T04:49:20;11.80;;;7.73;;
325;SDS011;150;52.352;14.058;2022-10-22T04:51:47;10.43;;;7.50;;
325;SDS011;150;52.352;14.058;2022-10-22T04:54:14;11.38;;;8.43;;
325;SDS011;150;52.352;14.058;2022-10-22T04:56:41;10.85;;;8.30;;
325;SDS011;150;52.352;14.058;2022-10-22T04:59:08;10.40;;;6.90;;
325;SDS011;150;52.352;14.058;2022-10-22T05:01:38;12.93;;;9.45;;
325;SDS011;150;52.352;14.058;2022-10-22T05:04:06;10.52;;;7.43;;
325;SDS011;150;52.352;14.058;2022-10-22T05:06:35;11.95;;;7.90;;
325;SDS011;150;52.352;14.058;2022-10-22T05:09:03;11.43;;;8.48;;
325;SDS011;150;52.352;14.058;2022-10-22T05:11:32;9.10;;;6.78;;
325;SDS011;150;52.352;14.058;2022-10-22T05:14:01;11.50;;;7.95;;
325;SDS011;150;52.352;14.058;2022-10-22T05:16:29;12.25;;;8.50;;
325;SDS011;150;52.352;14.058;2022-10-22T05:18:58;10.90;;;7.80;;
325;SDS011;150;52.352;14.058;2022-10-22T05:21:26;11.43;;;7.77;;
325;SDS011;150;52.352;14.058;2022-10-22T05:23:55;12.75;;;9.23;;
325;SDS011;150;52.352;14.058;2022-10-22T05:26:23;13.18;;;9.10;;
325;SDS011;150;52.352;14.058;2022-10-22T05:28:51;10.82;;;8.07;;
325;SDS011;150;52.352;14.058;2022-10-22T05:31:18;11.63;;;7.90;;
325;SDS011;150;52.352;14.058;2022-10-22T05:33:45;9.13;;;7.30;;
325;SDS011;150;52.352;14.058;2022-10-22T05:36:13;7.68;;;5.80;;
325;SDS011;150;52.352;14.058;2022-10-22T05:38:41;12.32;;;8.95;;
325;SDS011;150;52.352;14.058;2022-10-22T05:41:10;9.25;;;7.15;;
325;SDS011;150;52.352;14.058;2022-10-22T05:43:38;10.18;;;7.93;;
325;SDS011;150;52.352;14.058;2022-10-22T05:46:06;13.45;;;9.55;;
325;SDS011;150;52.352;14.058;2022-10-22T05:48:34;12.70;;;9.18;;
325;SDS011;150;52.352;14.058;2022-10-22T05:51:02;16.15;;;10.35;;
325;SDS011;150;52.352;14.058;2022-10-22T05:53:29;12.15;;;9.50;;
325;SDS011;150;52.352;14.058;2022-10-22T05:55:58;11.63;;;7.35;;
325;SDS011;150;52.352;14.058;2022-10-22T05:58:27;12.43;;;8.65;;
325;SDS011;150;52.352;14.058;2022-10-22T06:00:54;8.50;;;6.50;;
325;SDS011;150;52.352;14.058;2022-10-22T06:03:26;10.25;;;6.75;;
325;SDS011;150;52.352;14.058;2022-10-22T06:05:52;13.10;;;7.80;;
325;SDS011;150;52.352;14.058;2022-10-22T06:08:19;9.98;;;7.53;;
325;SDS011;150;52.352;14.058;2022-10-22T06:10:46;10.55;;;7.80;;
325;SDS011;150;52.352;14.058;2022-10-22T06:13:12;9.45;;;7.82;;
325;SDS011;150;52.352;14.058;2022-10-22T06:15:40;10.53;;;7.50;;
325;SDS011;150;52.352;14.058;2022-10-22T06:18:07;10.80;;;7.63;;
325;SDS011;150;52.352;14.058;2022-10-22T06:20:34;9.07;;;7.20;;
325;SDS011;150;52.352;14.058;2022-10-22T06:23:01;17.17;;;12.43;;
325;SDS011;150;52.352;14.058;2022-10-22T06:25:28;31.23;;;22.05;;
325;SDS011;150;52.352;14.058;2022-10-22T06:27:54;19.65;;;14.60;;
325;SDS011;150;52.352;14.058;2022-10-22T06:30:21;12.32;;;8.60;;
325;SDS011;150;52.352;14.058;2022-10-22T06:32:49;11.63;;;8.98;;
325;SDS011;150;52.352;14.058;2022-10-22T06:35:15;12.13;;;9.07;;
325;SDS011;150;52.352;14.058;2022-10-22T06:37:42;12.75;;;8.23;;
325;SDS011;150;52.352;14.058;2022-10-22T06:40:09;10.68;;;7.50;;
325;SDS011;150;52.352;14.058;2022-10-22T06:42:37;10.57;;;7.75;;
325;SDS011;150;52.352;14.058;2022-10-22T06:45:04;13.18;;;9.13;;
325;SDS011;150;52.352;14.058;2022-10-22T06:47:31;14.27;;;9.88;;
325;SDS011;150;52.352;14.058;2022-10-22T06:49:59;11.38;;;8.10;;
325;SDS011;150;52.352;14.058;2022-10-22T06:52:26;11.23;;;8.18;;
325;SDS011;150;52.352;14.058;2022-10-22T06:54:53;8.60;;;7.87;;
325;SDS011;150;52.352;14.058;2022-10-22T06:57:19;11.15;;;7.97;;
325;SDS011;150;52.352;14.058;2022-10-22T06:59:46;12.80;;;8.15;;
325;SDS011;150;52.352;14.058;2022-10-22T07:02:13;10.15;;;8.52;;
325;SDS011;150;52.352;14.058;2022-10-22T07:04:39;28.20;;;20.60;;
325;SDS011;150;52.352;14.058;2022-10-22T07:07:07;11.05;;;9.10;;
325;SDS011;150;52.352;14.058;2022-10-22T07:09:34;12.77;;;9.77;;
325;SDS011;150;52.352;14.058;2022-10-22T07:12:00;16.10;;;8.90;;
325;SDS011;150;52.352;14.058;2022-10-22T07:14:27;14.20;;;8.87;;
325;SDS011;150;52.352;14.058;2022-10-22T07:16:53;14.00;;;9.13;;
325;SDS011;150;52.352;14.058;2022-10-22T07:19:21;13.93;;;10.00;;
325;SDS011;150;52.352;14.058;2022-10-22T07:21:47;12.95;;;8.02;;
325;SDS011;150;52.352;14.058;2022-10-22T07:24:15;11.63;;;9.55;;
325;SDS011;150;52.352;14.058;2022-10-22T07:26:42;12.23;;;7.88;;
325;SDS011;150;52.352;14.058;2022-10-22T07:29:08;13.23;;;10.00;;
325;SDS011;150;52.352;14.058;2022-10-22T07:31:35;12.63;;;8.75;;
325;SDS011;150;52.352;14.058;2022-10-22T07:34:02;14.40;;;9.07;;
325;SDS011;150;52.352;14.058;2022-10-22T07:36:29;10.00;;;7.85;;
325;SDS011;150;52.352;14.058;2022-10-22T07:38:56;9.48;;;7.65;;
325;SDS011;150;52.352;14.058;2022-10-22T07:41:25;12.18;;;8.25;;
325;SDS011;150;52.352;14.058;2022-10-22T07:43:53;9.90;;;7.75;;
325;SDS011;150;52.352;14.058;2022-10-22T07:46:20;9.50;;;7.90;;
325;SDS011;150;52.352;14.058;2022-10-22T07:48:46;13.50;;;9.55;;
325;SDS011;150;52.352;14.058;2022-10-22T07:51:13;15.60;;;9.15;;
325;SDS011;150;52.352;14.058;2022-10-22T07:53:40;10.63;;;7.47;;
325;SDS011;150;52.352;14.058;2022-10-22T07:56:07;12.50;;;8.85;;
325;SDS011;150;52.352;14.058;2022-10-22T07:58:35;12.13;;;8.13;;
325;SDS011;150;52.352;14.058;2022-10-22T08:01:02;10.52;;;8.95;;
325;SDS011;150;52.352;14.058;2022-10-22T08:03:30;11.23;;;8.88;;
325;SDS011;150;52.352;14.058;2022-10-22T08:05:57;12.27;;;8.75;;
325;SDS011;150;52.352;14.058;2022-10-22T08:08:24;10.32;;;7.65;;
325;SDS011;150;52.352;14.058;2022-10-22T08:10:51;12.07;;;8.73;;
325;SDS011;150;52.352;14.058;2022-10-22T08:13:18;12.95;;;8.63;;
325;SDS011;150;52.352;14.058;2022-10-22T08:15:46;12.30;;;8.18;;
325;SDS011;150;52.352;14.058;2022-10-22T08:18:13;11.50;;;9.23;;
325;SDS011;150;52.352;14.058;2022-10-22T08:20:40;12.65;;;9.35;;
325;SDS011;150;52.352;14.058;2022-10-22T08:23:07;10.57;;;7.82;;
325;SDS011;150;52.352;14.058;2022-10-22T08:25:33;9.98;;;9.10;;
325;SDS011;150;52.352;14.058;2022-10-22T08:28:00;9.70;;;7.03;;
325;SDS011;150;52.352;14.058;2022-10-22T08:30:27;10.15;;;7.60;;
325;SDS011;150;52.352;14.058;2022-10-22T08:32:55;11.43;;;8.77;;
325;SDS011;150;52.352;14.058;2022-10-22T08:35:22;10.48;;;8.63;;
325;SDS011;150;52.352;14.058;2022-10-22T08:37:48;9.85;;;8.60;;
325;SDS011;150;52.352;14.058;2022-10-22T08:40:18;15.35;;;9.20;;
325;SDS011;150;52.352;14.058;2022-10-22T08:42:54;9.90;;;7.85;;
325;SDS011;150;52.352;14.058;2022-10-22T08:45:42;12.07;;;9.35;;
325;SDS011;150;52.352;14.058;2022-10-22T08:48:20;11.93;;;8.30;;
325;SDS011;150;52.352;14.058;2022-10-22T08:51:01;11.73;;;8.93;;
325;SDS011;150;52.352;14.058;2022-10-22T08:53:29;11.13;;;9.35;;
325;SDS011;150;52.352;14.058;2022-10-22T08:56:04;14.27;;;9.70;;
325;SDS011;150;52.352;14.058;2022-10-22T08:58:33;15.07;;;9.50;;
325;SDS011;150;52.352;14.058;2022-10-22T09:01:06;13.63;;;10.05;;
325;SDS011;150;52.352;14.058;2022-10-22T09:03:42;12.40;;;9.57;;
325;SDS011;150;52.352;14.058;2022-10-22T09:06:15;14.57;;;9.90;;
325;SDS011;150;52.352;14.058;2022-10-22T09:08:45;14.40;;;10.20;;
325;SDS011;150;52.352;14.058;2022-10-22T09:11:14;12.63;;;9.90;;
325;SDS011;150;52.352;14.058;2022-10-22T09:13:45;13.00;;;9.63;;
325;SDS011;150;52.352;14.058;2022-10-22T09:16:14;14.30;;;9.77;;
325;SDS011;150;52.352;14.058;2022-10-22T09:18:47;11.97;;;9.60;;
325;SDS011;150;52.352;14.058;2022-10-22T09:21:23;10.57;;;8.40;;
325;SDS011;150;52.352;14.058;2022-10-22T09:24:04;13.70;;;9.48;;
325;SDS011;150;52.352;14.058;2022-10-22T09:26:36;11.40;;;8.60;;
325;SDS011;150;52.352;14.058;2022-10-22T09:29:04;10.95;;;8.32;;
325;SDS011;150;52.352;14.058;2022-10-22T09:31:32;10.13;;;8.30;;
325;SDS011;150;52.352;14.058;2022-10-22T09:34:01;14.65;;;8.82;;
325;SDS011;150;52.352;14.058;2022-10-22T09:36:31;10.52;;;8.57;;
325;SDS011;150;52.352;14.058;2022-10-22T09:38:59;12.23;;;8.75;;
325;SDS011;150;52.352;14.058;2022-10-22T09:41:26;15.45;;;8.00;;
325;SDS011;150;52.352;14.058;2022-10-22T09:43:54;13.05;;;9.15;;
325;SDS011;150;52.352;14.058;2022-10-22T09:46:22;18.50;;;13.43;;
325;SDS011;150;52.352;14.058;2022-10-22T09:48:50;13.50;;;8.77;;
325;SDS011;150;52.352;14.058;2022-10-22T09:51:36;8.40;;;7.40;;
325;SDS011;150;52.352;14.058;2022-10-22T09:54:14;10.93;;;7.85;;
325;SDS011;150;52.352;14.058;2022-10-22T09:56:46;11.32;;;8.00;;
325;SDS011;150;52.352;14.058;2022-10-22T09:59:16;12.40;;;8.40;;
325;SDS011;150;52.352;14.058;2022-10-22T10:01:44;8.65;;;7.63;;
325;SDS011;150;52.352;14.058;2022-10-22T10:04:11;10.45;;;8.20;;
325;SDS011;150;52.352;14.058;2022-10-22T10:06:42;9.85;;;7.13;;
325;SDS011;150;52.352;14.058;2022-10-22T10:09:12;9.97;;;8.40;;
325;SDS011;150;52.352;14.058;2022-10-22T10:11:42;9.23;;;8.10;;
325;SDS011;150;52.352;14.058;2022-10-22T10:14:12;8.63;;;7.75;;
325;SDS011;150;52.352;14.058;2022-10-22T10:16:47;8.77;;;7.40;;
325;SDS011;150;52.352;14.058;2022-10-22T10:19:31;14.55;;;8.25;;
325;SDS011;150;52.352;14.058;2022-10-22T10:22:15;12.82;;;8.00;;
325;SDS011;150;52.352;14.058;2022-10-22T10:24:56;8.80;;;7.13;;
325;SDS011;150;52.352;14.058;2022-10-22T10:27:35;9.57;;;8.30;;
325;SDS011;150;52.352;14.058;2022-10-22T10:30:09;9.57;;;7.63;;
325;SDS011;150;52.352;14.058;2022-10-22T10:32:45;9.43;;;6.53;;
325;SDS011;150;52.352;14.058;2022-10-22T10:35:23;10.07;;;8.20;;
325;SDS011;150;52.352;14.058;2022-10-22T10:37:59;9.73;;;7.23;;
325;SDS011;150;52.352;14.058;2022-10-22T10:40:41;9.80;;;7.20;;
325;SDS011;150;52.352;14.058;2022-10-22T10:43:14;11.10;;;7.32;;
325;SDS011;150;52.352;14.058;2022-10-22T10:45:50;10.88;;;7.60;;
325;SDS011;150;52.352;14.058;2022-10-22T10:48:31;7.72;;;7.03;;
325;SDS011;150;52.352;14.058;2022-10-22T10:51:12;11.43;;;7.45;;
325;SDS011;150;52.352;14.058;2022-10-22T10:53:57;11.20;;;7.07;;
325;SDS011;150;52.352;14.058;2022-10-22T10:56:32;10.20;;;7.80;;
325;SDS011;150;52.352;14.058;2022-10-22T10:59:08;9.70;;;7.03;;
325;SDS011;150;52.352;14.058;2022-10-22T11:01:46;9.13;;;6.65;;
325;SDS011;150;52.352;14.058;2022-10-22T11:04:40;8.20;;;6.53;;
325;SDS011;150;52.352;14.058;2022-10-22T11:07:35;7.93;;;6.82;;
325;SDS011;150;52.352;14.058;2022-10-22T11:10:08;8.25;;;6.82;;
325;SDS011;150;52.352;14.058;2022-10-22T11:12:40;8.73;;;7.15;;
325;SDS011;150;52.352;14.058;2022-10-22T11:15:14;8.88;;;6.93;;
325;SDS011;150;52.352;14.058;2022-10-22T11:17:47;9.05;;;6.95;;
325;SDS011;150;52.352;14.058;2022-10-22T11:20:15;10.20;;;6.55;;
325;SDS011;150;52.352;14.058;2022-10-22T11:22:47;10.57;;;6.10;;
325;SDS011;150;52.352;14.058;2022-10-22T11:25:21;11.35;;;7.03;;
325;SDS011;150;52.352;14.058;2022-10-22T11:27:51;10.70;;;7.13;;
325;SDS011;150;52.352;14.058;2022-10-22T11:30:23;9.27;;;7.00;;
325;SDS011;150;52.352;14.058;2022-10-22T11:32:51;7.55;;;6.60;;
325;SDS011;150;52.352;14.058;2022-10-22T11:35:21;10.70;;;7.35;;
325;SDS011;150;52.352;14.058;2022-10-22T11:37:51;8.70;;;7.95;;
325;SDS011;150;52.352;14.058;2022-10-22T11:40:21;9.10;;;7.90;;
325;SDS011;150;52.352;14.058;2022-10-22T11:42:58;11.05;;;8.60;;
325;SDS011;150;52.352;14.058;2022-10-22T11:45:29;13.90;;;8.70;;
325;SDS011;150;52.352;14.058;2022-10-22T11:48:04;12.43;;;8.87;;
325;SDS011;150;52.352;14.058;2022-10-22T11:50:47;12.18;;;9.15;;
325;SDS011;150;52.352;14.058;2022-10-22T11:53:17;10.32;;;7.78;;
325;SDS011;150;52.352;14.058;2022-10-22T11:55:48;11.38;;;8.18;;
325;SDS011;150;52.352;14.058;2022-10-22T11:58:25;10.70;;;8.90;;
325;SDS011;150;52.352;14.058;2022-10-22T12:00:54;12.37;;;8.77;;
325;SDS011;150;52.352;14.058;2022-10-22T12:03:23;11.95;;;8.30;;
325;SDS011;150;52.352;14.058;2022-10-22T12:06:07;9.55;;;7.85;;
325;SDS011;150;52.352;14.058;2022-10-22T12:08:45;11.63;;;8.38;;
325;SDS011;150;52.352;14.058;2022-10-22T12:11:20;12.73;;;8.35;;
325;SDS011;150;52.352;14.058;2022-10-22T12:13:50;11.07;;;9.20;;
325;SDS011;150;52.352;14.058;2022-10-22T12:16:22;16.70;;;10.48;;
325;SDS011;150;52.352;14.058;2022-10-22T12:18:52;13.00;;;10.43;;
325;SDS011;150;52.352;14.058;2022-10-22T12:21:23;9.77;;;7.88;;
325;SDS011;150;52.352;14.058;2022-10-22T12:23:50;14.18;;;11.02;;
325;SDS011;150;52.352;14.058;2022-10-22T12:26:23;11.57;;;9.65;;
325;SDS011;150;52.352;14.058;2022-10-22T12:28:55;14.13;;;8.50;;
325;SDS011;150;52.352;14.058;2022-10-22T12:31:22;10.80;;;9.50;;
325;SDS011;150;52.352;14.058;2022-10-22T12:33:54;10.80;;;8.73;;
325;SDS011;150;52.352;14.058;2022-10-22T12:36:21;12.63;;;9.18;;
325;SDS011;150;52.352;14.058;2022-10-22T12:38:50;11.50;;;8.32;;
325;SDS011;150;52.352;14.058;2022-10-22T12:41:16;10.82;;;8.50;;
325;SDS011;150;52.352;14.058;2022-10-22T12:43:44;9.68;;;7.20;;
325;SDS011;150;52.352;14.058;2022-10-22T12:46:11;12.07;;;8.80;;
325;SDS011;150;52.352;14.058;2022-10-22T12:48:41;12.05;;;8.02;;
325;SDS011;150;52.352;14.058;2022-10-22T12:51:10;11.05;;;9.55;;
325;SDS011;150;52.352;14.058;2022-10-22T12:53:43;19.17;;;13.50;;
325;SDS011;150;52.352;14.058;2022-10-22T12:56:13;10.70;;;8.77;;
325;SDS011;150;52.352;14.058;2022-10-22T12:58:43;11.57;;;8.50;;
325;SDS011;150;52.352;14.058;2022-10-22T13:01:14;11.48;;;7.80;;
325;SDS011;150;52.352;14.058;2022-10-22T13:03:44;9.33;;;6.97;;
325;SDS011;150;52.352;14.058;2022-10-22T13:06:21;12.82;;;7.43;;
325;SDS011;150;52.352;14.058;2022-10-22T13:08:54;11.10;;;6.40;;
325;SDS011;150;52.352;14.058;2022-10-22T13:11:30;10.07;;;7.07;;
325;SDS011;150;52.352;14.058;2022-10-22T13:14:01;9.88;;;6.60;;
325;SDS011;150;52.352;14.058;2022-10-22T13:16:28;10.45;;;6.63;;
325;SDS011;150;52.352;14.058;2022-10-22T13:18:56;8.17;;;5.83;;
325;SDS011;150;52.352;14.058;2022-10-22T13:21:24;8.23;;;5.55;;
325;SDS011;150;52.352;14.058;2022-10-22T13:23:55;6.93;;;5.63;;
325;SDS011;150;52.352;14.058;2022-10-22T13:26:24;8.18;;;6.15;;
325;SDS011;150;52.352;14.058;2022-10-22T13:28:57;8.43;;;6.30;;
325;SDS011;150;52.352;14.058;2022-10-22T13:31:27;6.95;;;5.63;;
325;SDS011;150;52.352;14.058;2022-10-22T13:33:58;8.95;;;5.57;;
325;SDS011;150;52.352;14.058;2022-10-22T13:36:26;7.07;;;5.50;;
325;SDS011;150;52.352;14.058;2022-10-22T13:38:54;6.60;;;5.70;;
325;SDS011;150;52.352;14.058;2022-10-22T13:41:22;8.73;;;5.28;;
325;SDS011;150;52.352;14.058;2022-10-22T13:43:50;6.80;;;5.22;;
325;SDS011;150;52.352;14.058;2022-10-22T13:46:18;6.60;;;4.60;;
325;SDS011;150;52.352;14.058;2022-10-22T13:48:46;5.55;;;4.32;;
325;SDS011;150;52.352;14.058;2022-10-22T13:51:14;4.70;;;4.00;;
325;SDS011;150;52.352;14.058;2022-10-22T13:53:43;4.78;;;3.92;;
325;SDS011;150;52.352;14.058;2022-10-22T13:56:12;7.97;;;4.25;;
325;SDS011;150;52.352;14.058;2022-10-22T13:58:40;4.90;;;3.47;;
325;SDS011;150;52.352;14.058;2022-10-22T14:01:08;3.80;;;3.30;;
325;SDS011;150;52.352;14.058;2022-10-22T14:03:43;5.43;;;3.53;;
325;SDS011;150;52.352;14.058;2022-10-22T14:06:12;5.60;;;3.27;;
325;SDS011;150;52.352;14.058;2022-10-22T14:08:40;3.90;;;3.00;;
325;SDS011;150;52.352;14.058;2022-10-22T14:11:08;6.38;;;3.10;;
325;SDS011;150;52.352;14.058;2022-10-22T14:13:35;7.07;;;3.10;;
325;SDS011;150;52.352;14.058;2022-10-22T14:16:02;3.97;;;3.67;;
325;SDS011;150;52.352;14.058;2022-10-22T14:18:30;3.78;;;3.20;;
325;SDS011;150;52.352;14.058;2022-10-22T14:20:58;3.50;;;3.00;;
325;SDS011;150;52.352;14.058;2022-10-22T14:23:30;4.05;;;3.20;;
325;SDS011;150;52.352;14.058;2022-10-22T14:25:58;6.70;;;4.30;;
325;SDS011;150;52.352;14.058;2022-10-22T14:28:25;10.18;;;7.45;;
325;SDS011;150;52.352;14.058;2022-10-22T14:30:52;6.15;;;3.00;;
325;SDS011;150;52.352;14.058;2022-10-22T14:33:20;3.67;;;3.10;;
325;SDS011;150;52.352;14.058;2022-10-22T14:35:49;4.07;;;2.53;;
325;SDS011;150;52.352;14.058;2022-10-22T14:38:16;5.15;;;2.45;;
325;SDS011;150;52.352;14.058;2022-10-22T14:40:45;4.13;;;2.35;;
325;SDS011;150;52.352;14.058;2022-10-22T14:43:12;3.50;;;2.30;;
325;SDS011;150;52.352;14.058;2022-10-22T14:45:42;5.00;;;2.60;;
325;SDS011;150;52.352;14.058;2022-10-22T14:48:09;3.17;;;2.20;;
325;SDS011;150;52.352;14.058;2022-10-22T14:50:36;3.80;;;2.20;;
325;SDS011;150;52.352;14.058;2022-10-22T14:53:02;4.07;;;2.80;;
325;SDS011;150;52.352;14.058;2022-10-22T14:55:29;4.93;;;2.95;;
325;SDS011;150;52.352;14.058;2022-10-22T14:57:57;3.40;;;2.63;;
325;SDS011;150;52.352;14.058;2022-10-22T15:00:23;3.20;;;2.78;;
325;SDS011;150;52.352;14.058;2022-10-22T15:02:50;3.75;;;2.80;;
325;SDS011;150;52.352;14.058;2022-10-22T15:05:19;3.97;;;2.67;;
325;SDS011;150;52.352;14.058;2022-10-22T15:07:48;5.80;;;2.90;;
325;SDS011;150;52.352;14.058;2022-10-22T15:10:14;3.65;;;2.50;;
325;SDS011;150;52.352;14.058;2022-10-22T15:12:41;4.40;;;2.28;;
325;SDS011;150;52.352;14.058;2022-10-22T15:15:09;2.67;;;2.10;;
325;SDS011;150;52.352;14.058;2022-10-22T15:17:36;4.13;;;2.80;;
325;SDS011;150;52.352;14.058;2022-10-22T15:20:03;3.70;;;3.10;;
325;SDS011;150;52.352;14.058;2022-10-22T15:22:31;4.75;;;2.70;;
325;SDS011;150;52.352;14.058;2022-10-22T15:25:00;3.37;;;2.50;;
325;SDS011;150;52.352;14.058;2022-10-22T15:27:27;4.78;;;2.33;;
325;SDS011;150;52.352;14.058;2022-10-22T15:29:54;4.78;;;2.72;;
325;SDS011;150;52.352;14.058;2022-10-22T15:32:24;4.70;;;2.80;;